createdAt,value
2022-12-23T00:00:42.094Z,42.33
2022-12-23T00:03:09.251Z,38.22
2022-12-23T00:05:38.256Z,42.35
2022-12-23T00:08:06.299Z,40.78
2022-12-23T00:10:33.455Z,43.53
2022-12-23T00:13:18.894Z,39.15
2022-12-23T00:15:45.633Z,42.30
2022-12-23T00:18:12.463Z,46.55
2022-12-23T00:20:39.234Z,39.50
2022-12-23T00:23:06.727Z,40.97
2022-12-23T00:25:41.175Z,42.05
2022-12-23T00:28:16.000Z,44.50
2022-12-23T00:31:04.572Z,49.00
2022-12-23T00:33:44.805Z,44.85
2022-12-23T00:36:15.420Z,39.72
2022-12-23T00:39:00.813Z,47.28
2022-12-23T00:41:46.171Z,29.63
2022-12-23T00:44:13.493Z,30.52
2022-12-23T00:46:40.242Z,30.25
2022-12-23T00:49:26.141Z,32.85
2022-12-23T00:51:53.272Z,27.88
2022-12-23T00:54:20.500Z,37.03
2022-12-23T00:56:47.259Z,36.97
2022-12-23T00:59:19.159Z,37.17
2022-12-23T01:02:08.225Z,42.67
2022-12-23T01:05:00.243Z,43.03
2022-12-23T01:07:27.328Z,52.00
2022-12-23T01:09:54.137Z,43.50
2022-12-23T01:12:21.259Z,47.63
2022-12-23T01:14:48.560Z,36.88
2022-12-23T01:17:15.351Z,33.65
2022-12-23T01:19:42.303Z,38.35
2022-12-23T01:22:09.204Z,43.72
2022-12-23T01:24:35.959Z,42.60
2022-12-23T01:27:02.777Z,37.88
2022-12-23T01:29:30.013Z,40.67
2022-12-23T01:31:56.883Z,42.72
2022-12-23T01:34:23.651Z,40.40
2022-12-23T01:36:50.560Z,36.60
2022-12-23T01:39:17.515Z,42.38
2022-12-23T01:42:02.845Z,38.13
2022-12-23T01:44:55.308Z,40.42
2022-12-23T01:47:25.132Z,43.17
2022-12-23T01:50:19.936Z,38.78
2022-12-23T01:53:07.353Z,36.72
2022-12-23T01:55:54.579Z,39.03
2022-12-23T01:58:25.959Z,39.05
2022-12-23T02:01:26.043Z,51.05
2022-12-23T02:03:59.256Z,43.88
2022-12-23T02:06:48.025Z,47.90
2022-12-23T02:09:40.331Z,40.25
2022-12-23T02:12:22.347Z,43.28
2022-12-23T02:15:13.882Z,43.65
2022-12-23T02:18:04.883Z,39.20
2022-12-23T02:21:19.963Z,46.13
2022-12-23T02:24:04.978Z,37.97
2022-12-23T02:27:09.748Z,46.15
2022-12-23T02:29:42.603Z,43.45
2022-12-23T02:32:12.258Z,41.00
2022-12-23T02:34:52.115Z,40.10
2022-12-23T02:37:44.224Z,37.00
2022-12-23T02:40:30.449Z,35.72
2022-12-23T02:43:20.550Z,32.80
2022-12-23T02:46:17.296Z,40.55
2022-12-23T02:48:57.005Z,35.80
2022-12-23T02:51:31.034Z,32.88
2022-12-23T02:54:03.135Z,30.10
2022-12-23T02:56:33.429Z,38.35
2022-12-23T02:59:05.736Z,33.55
2022-12-23T03:01:33.974Z,32.15
2022-12-23T03:04:01.040Z,33.13
2022-12-23T03:06:36.598Z,34.33
2022-12-23T03:09:03.470Z,32.10
2022-12-23T03:12:11.949Z,37.45
2022-12-23T03:15:05.255Z,35.42
2022-12-23T03:17:57.722Z,37.50
2022-12-23T03:20:33.137Z,34.22
2022-12-23T03:23:27.597Z,37.88
2022-12-23T03:26:02.128Z,40.78
2022-12-23T03:28:36.957Z,36.78
2022-12-23T03:31:09.892Z,36.92
2022-12-23T03:33:42.629Z,43.10
2022-12-23T03:36:24.562Z,40.25
2022-12-23T03:38:55.197Z,46.03
2022-12-23T03:41:33.279Z,40.22
2022-12-23T03:44:29.417Z,38.58
2022-12-23T03:47:15.309Z,37.08
2022-12-23T03:50:00.675Z,35.72
2022-12-23T03:52:46.104Z,37.15
2022-12-23T03:55:20.131Z,39.00
2022-12-23T03:58:00.855Z,33.65
2022-12-23T04:00:34.252Z,38.25
2022-12-23T04:03:10.512Z,33.85
2022-12-23T04:05:40.730Z,36.35
2022-12-23T04:08:25.661Z,38.55
2022-12-23T04:10:53.478Z,41.78
2022-12-23T04:13:20.302Z,38.47
2022-12-23T04:15:47.247Z,41.75
2022-12-23T04:18:14.462Z,32.50
2022-12-23T04:20:41.080Z,38.63
2022-12-23T04:23:07.871Z,37.40
2022-12-23T04:25:34.741Z,38.75
2022-12-23T04:28:01.442Z,38.08
2022-12-23T04:30:34.004Z,40.33
2022-12-23T04:33:02.555Z,41.55
2022-12-23T04:35:29.647Z,45.97
2022-12-23T04:37:56.673Z,46.33
2022-12-23T04:40:23.544Z,43.50
2022-12-23T04:42:50.215Z,38.08
2022-12-23T04:45:16.976Z,42.67
2022-12-23T04:47:43.780Z,35.88
2022-12-23T04:50:14.795Z,33.35
2022-12-23T04:52:42.315Z,32.42
2022-12-23T04:55:09.677Z,26.90
2022-12-23T04:57:36.410Z,22.52
2022-12-23T05:00:04.912Z,27.70
2022-12-23T05:02:31.762Z,30.05
2022-12-23T05:04:58.577Z,32.83
2022-12-23T05:07:25.474Z,31.10
2022-12-23T05:09:52.583Z,35.10
2022-12-23T05:12:19.381Z,34.83
2022-12-23T05:14:46.325Z,33.83
2022-12-23T05:17:13.132Z,43.60
2022-12-23T05:19:39.839Z,47.00
2022-12-23T05:22:06.593Z,43.03
2022-12-23T05:24:33.512Z,48.58
2022-12-23T05:27:00.720Z,55.75
2022-12-23T05:29:29.217Z,39.83
2022-12-23T05:31:56.138Z,45.95
2022-12-23T05:34:22.925Z,47.08
2022-12-23T05:36:49.840Z,38.75
2022-12-23T05:39:17.008Z,32.75
2022-12-23T05:41:43.814Z,39.15
2022-12-23T05:44:10.555Z,35.38
2022-12-23T05:46:37.509Z,38.83
2022-12-23T05:49:04.259Z,56.15
2022-12-23T05:51:31.020Z,47.03
2022-12-23T05:53:57.797Z,37.53
2022-12-23T05:56:24.702Z,39.40
2022-12-23T05:58:51.451Z,45.50
2022-12-23T06:01:18.700Z,42.58
2022-12-23T06:03:45.416Z,48.78
2022-12-23T06:06:13.175Z,53.63
2022-12-23T06:08:40.031Z,58.45
2022-12-23T06:11:07.077Z,45.33
2022-12-23T06:13:33.863Z,46.30
2022-12-23T06:16:00.730Z,42.90
2022-12-23T06:18:27.493Z,41.47
2022-12-23T06:20:54.243Z,45.85
2022-12-23T06:23:21.014Z,53.90
2022-12-23T06:25:47.712Z,47.92
2022-12-23T06:28:14.432Z,38.53
2022-12-23T06:30:41.192Z,52.45
2022-12-23T06:33:07.863Z,50.30
2022-12-23T06:35:34.580Z,39.53
2022-12-23T06:38:01.269Z,47.78
2022-12-23T06:40:29.322Z,75.13
2022-12-23T06:42:56.107Z,53.78
2022-12-23T06:45:22.994Z,44.22
2022-12-23T06:47:49.856Z,44.63
2022-12-23T06:50:16.591Z,45.53
2022-12-23T06:52:43.682Z,45.63
2022-12-23T06:55:10.354Z,38.83
2022-12-23T06:57:37.416Z,35.95
2022-12-23T07:00:08.806Z,50.45
2022-12-23T07:02:35.680Z,44.45
2022-12-23T07:05:02.469Z,47.30
2022-12-23T07:07:29.358Z,48.33
2022-12-23T07:09:56.116Z,46.67
2022-12-23T07:12:22.869Z,43.10
2022-12-23T07:14:49.671Z,43.17
2022-12-23T07:17:16.617Z,45.38
2022-12-23T07:19:43.416Z,49.58
2022-12-23T07:22:13.050Z,48.33
2022-12-23T07:24:39.727Z,46.63
2022-12-23T07:27:06.498Z,54.22
2022-12-23T07:29:33.321Z,52.67
2022-12-23T07:32:02.125Z,57.78
2022-12-23T07:34:28.784Z,49.53
2022-12-23T07:36:56.124Z,54.90
2022-12-23T07:39:22.934Z,48.00
2022-12-23T07:41:55.497Z,53.60
2022-12-23T07:44:30.663Z,54.05
2022-12-23T07:46:57.365Z,66.25
2022-12-23T07:49:23.957Z,65.82
2022-12-23T07:51:50.723Z,63.28
2022-12-23T07:54:17.480Z,57.30
2022-12-23T07:56:44.206Z,55.58
2022-12-23T07:59:10.953Z,61.95
2022-12-23T08:01:37.895Z,58.55
2022-12-23T08:04:04.735Z,54.80
2022-12-23T08:06:32.496Z,56.80
2022-12-23T08:08:59.141Z,52.95
2022-12-23T08:11:25.819Z,51.83
2022-12-23T08:13:53.132Z,58.00
2022-12-23T08:16:19.951Z,50.90
2022-12-23T08:18:46.782Z,46.85
2022-12-23T08:21:15.960Z,59.85
2022-12-23T08:23:43.738Z,53.60
2022-12-23T08:26:16.886Z,57.03
2022-12-23T08:28:44.719Z,57.28
2022-12-23T08:31:26.529Z,55.40
2022-12-23T08:33:56.010Z,56.42
2022-12-23T08:36:25.820Z,53.95
2022-12-23T08:38:54.798Z,52.38
2022-12-23T08:41:35.890Z,60.28
2022-12-23T08:44:03.487Z,62.28
2022-12-23T08:46:30.395Z,56.03
2022-12-23T08:48:57.295Z,63.95
2022-12-23T08:51:25.639Z,62.72
2022-12-23T08:54:01.054Z,54.22
2022-12-23T08:56:32.444Z,65.07
2022-12-23T08:58:59.149Z,55.63
2022-12-23T09:01:30.119Z,64.38
2022-12-23T09:03:57.313Z,59.42
2022-12-23T09:06:29.456Z,52.70
2022-12-23T09:08:58.128Z,52.80
2022-12-23T09:11:28.357Z,51.15
2022-12-23T09:13:56.092Z,48.90
2022-12-23T09:16:23.641Z,46.45
2022-12-23T09:18:50.685Z,49.25
2022-12-23T09:21:22.411Z,52.88
2022-12-23T09:23:49.492Z,50.30
2022-12-23T09:26:25.219Z,56.20
2022-12-23T09:28:52.578Z,52.78
2022-12-23T09:31:21.877Z,59.85
2022-12-23T09:33:51.000Z,54.65
2022-12-23T09:36:18.193Z,59.72
2022-12-23T09:38:45.364Z,63.13
2022-12-23T09:41:40.128Z,70.50
2022-12-23T09:44:12.886Z,58.03
2022-12-23T09:46:48.334Z,60.92
2022-12-23T09:49:17.613Z,59.15
2022-12-23T09:51:45.813Z,50.28
2022-12-23T09:54:22.911Z,63.50
2022-12-23T09:57:18.813Z,50.22
2022-12-23T10:00:12.503Z,52.00
2022-12-23T10:03:16.425Z,47.53
2022-12-23T10:06:00.702Z,47.33
2022-12-23T10:08:27.494Z,46.58
2022-12-23T10:11:07.884Z,44.47
2022-12-23T10:13:37.561Z,46.13
2022-12-23T10:16:09.729Z,45.88
2022-12-23T10:19:00.157Z,42.70
2022-12-23T10:21:46.935Z,42.83
2022-12-23T10:24:23.462Z,51.70
2022-12-23T10:26:55.111Z,45.15
2022-12-23T10:29:27.787Z,41.20
2022-12-23T10:32:03.781Z,37.25
2022-12-23T10:34:57.010Z,40.08
2022-12-23T10:37:38.823Z,42.40
2022-12-23T10:40:22.817Z,44.88
2022-12-23T10:42:58.533Z,44.00
2022-12-23T10:46:03.934Z,41.47
2022-12-23T10:48:56.378Z,35.38
2022-12-23T10:51:34.171Z,37.78
2022-12-23T10:54:15.037Z,45.83
2022-12-23T10:56:42.642Z,38.90
2022-12-23T10:59:14.310Z,38.75
2022-12-23T11:01:44.006Z,42.85
2022-12-23T11:04:17.297Z,38.97
2022-12-23T11:06:46.900Z,43.95
2022-12-23T11:09:19.317Z,37.17
2022-12-23T11:12:01.379Z,35.65
2022-12-23T11:14:32.397Z,34.85
2022-12-23T11:16:59.403Z,37.88
2022-12-23T11:19:29.344Z,37.83
2022-12-23T11:22:01.031Z,41.53
2022-12-23T11:24:38.036Z,42.42
2022-12-23T11:27:12.603Z,39.50
2022-12-23T11:29:47.262Z,40.03
2022-12-23T11:32:24.610Z,39.97
2022-12-23T11:34:52.228Z,35.25
2022-12-23T11:37:36.201Z,38.70
2022-12-23T11:40:15.392Z,36.22
2022-12-23T11:42:42.960Z,41.53
2022-12-23T11:45:09.943Z,40.92
2022-12-23T11:47:41.530Z,35.97
2022-12-23T11:50:20.737Z,40.70
2022-12-23T11:52:52.600Z,33.03
2022-12-23T11:55:29.850Z,34.00
2022-12-23T11:57:57.103Z,25.98
2022-12-23T12:00:34.789Z,44.83
2022-12-23T12:03:04.675Z,30.08
2022-12-23T12:05:40.968Z,30.08
2022-12-23T12:08:13.930Z,25.52
2022-12-23T12:10:42.329Z,32.05
2022-12-23T12:13:24.181Z,32.03
2022-12-23T12:16:12.691Z,23.55
2022-12-23T12:18:42.918Z,29.95
2022-12-23T12:21:18.987Z,24.40
2022-12-23T12:24:17.344Z,29.13
2022-12-23T12:26:51.421Z,31.40
2022-12-23T12:29:28.941Z,25.60
2022-12-23T12:31:58.796Z,28.50
2022-12-23T12:34:58.201Z,28.88
2022-12-23T12:37:48.339Z,25.13
2022-12-23T12:40:25.061Z,33.13
2022-12-23T12:43:34.967Z,36.75
2022-12-23T12:46:27.147Z,34.20
2022-12-23T12:49:40.780Z,31.13
2022-12-23T12:52:19.506Z,33.90
2022-12-23T12:55:01.971Z,29.17
2022-12-23T12:57:29.754Z,40.10
2022-12-23T13:00:05.510Z,32.22
2022-12-23T13:02:53.989Z,38.83
2022-12-23T13:05:36.153Z,36.20
2022-12-23T13:08:51.171Z,29.45
2022-12-23T13:11:45.316Z,35.60
2022-12-23T13:14:43.895Z,37.65
2022-12-23T13:17:28.843Z,40.53
2022-12-23T13:20:29.216Z,31.02
2022-12-23T13:23:27.039Z,29.63
2022-12-23T13:26:00.642Z,31.60
2022-12-23T13:28:51.393Z,24.33
2022-12-23T13:31:42.378Z,28.60
2022-12-23T13:34:45.580Z,28.15
2022-12-23T13:37:39.537Z,26.23
2022-12-23T13:40:34.155Z,36.30
2022-12-23T13:43:22.266Z,19.35
2022-12-23T13:45:51.938Z,35.50
2022-12-23T13:48:27.446Z,35.50
2022-12-23T13:51:07.037Z,30.38
2022-12-23T13:53:58.042Z,38.13
2022-12-23T13:57:10.623Z,37.63
2022-12-23T14:00:20.313Z,28.65
2022-12-23T14:03:01.953Z,26.98
2022-12-23T14:05:33.370Z,39.33
2022-12-23T14:08:05.878Z,41.28
2022-12-23T14:10:33.194Z,34.83
2022-12-23T14:13:22.986Z,39.25
2022-12-23T14:16:12.920Z,43.03
2022-12-23T14:18:45.723Z,35.90
2022-12-23T14:21:21.552Z,44.55
2022-12-23T14:24:13.583Z,40.25
2022-12-23T14:27:03.110Z,42.67
2022-12-23T14:29:38.851Z,43.30
2022-12-23T14:32:34.510Z,43.70
2022-12-23T14:35:27.227Z,44.47
2022-12-23T14:38:15.119Z,53.53
2022-12-23T14:40:41.900Z,60.58
2022-12-23T14:43:25.532Z,68.32
2022-12-23T14:46:05.212Z,65.15
2022-12-23T14:48:47.898Z,58.50
2022-12-23T14:51:14.631Z,45.92
2022-12-23T14:53:57.081Z,44.53
2022-12-23T14:56:32.357Z,36.67
2022-12-23T14:59:26.934Z,46.45
2022-12-23T15:02:22.663Z,45.30
2022-12-23T15:04:58.054Z,40.70
2022-12-23T15:07:33.130Z,38.10
2022-12-23T15:10:02.370Z,36.10
2022-12-23T15:12:37.160Z,36.50
2022-12-23T15:15:07.048Z,39.35
2022-12-23T15:17:36.569Z,34.40
2022-12-23T15:20:20.029Z,45.47
2022-12-23T15:22:48.420Z,48.40
2022-12-23T15:25:24.113Z,45.35
2022-12-23T15:27:56.004Z,47.40
2022-12-23T15:30:30.508Z,43.38
2022-12-23T15:33:21.863Z,50.45
2022-12-23T15:35:53.688Z,53.38
2022-12-23T15:38:23.881Z,34.60
2022-12-23T15:40:59.935Z,43.78
2022-12-23T15:43:27.368Z,35.95
2022-12-23T15:46:09.784Z,32.70
2022-12-23T15:48:38.256Z,31.60
2022-12-23T15:54:32.440Z,41.22
2022-12-23T15:57:05.802Z,38.75
2022-12-23T15:59:39.147Z,48.30
2022-12-23T16:05:37.709Z,38.22
2022-12-23T16:08:16.504Z,32.58
2022-12-23T16:11:16.043Z,35.97
2022-12-23T16:13:58.480Z,34.13
2022-12-23T16:16:43.478Z,42.45
2022-12-23T16:22:22.619Z,49.58
2022-12-23T16:25:09.384Z,60.78
2022-12-23T16:27:47.837Z,42.53
2022-12-23T16:30:24.777Z,50.17
2022-12-23T16:33:04.613Z,76.68
2022-12-23T16:35:42.044Z,79.72
2022-12-23T16:38:26.111Z,65.65
2022-12-23T16:40:55.840Z,42.72
2022-12-23T16:43:24.542Z,95.50
2022-12-23T16:45:55.356Z,38.60
2022-12-23T16:51:22.114Z,26.98
2022-12-23T16:53:50.258Z,36.80
2022-12-23T16:56:20.258Z,37.10
2022-12-23T16:58:50.736Z,60.70
2022-12-23T17:01:27.850Z,78.90
2022-12-23T17:03:56.052Z,88.40
2022-12-23T17:06:23.656Z,51.40
2022-12-23T17:08:51.236Z,71.22
2022-12-23T17:11:23.456Z,63.55
2022-12-23T17:13:50.636Z,63.35
2022-12-23T17:16:25.863Z,39.17
2022-12-23T17:18:53.507Z,58.88
2022-12-23T17:21:26.877Z,25.20
2022-12-23T17:23:57.164Z,27.33
2022-12-23T17:26:24.156Z,40.25
2022-12-23T17:28:54.488Z,28.25
2022-12-23T17:31:27.016Z,32.05
2022-12-23T17:33:54.641Z,25.10
2022-12-23T17:36:28.015Z,20.33
2022-12-23T17:38:55.006Z,23.70
2022-12-23T17:41:32.230Z,24.05
2022-12-23T17:44:00.091Z,22.63
2022-12-23T17:46:41.085Z,24.65
2022-12-23T17:49:08.933Z,40.17
2022-12-23T17:51:36.139Z,34.15
2022-12-23T17:54:04.757Z,35.47
2022-12-23T17:56:31.655Z,34.60
2022-12-23T17:58:58.918Z,32.55
2022-12-23T18:01:28.414Z,28.73
2022-12-23T18:03:56.645Z,33.03
2022-12-23T18:06:25.321Z,33.13
2022-12-23T18:08:52.478Z,32.55
2022-12-23T18:11:27.024Z,29.38
2022-12-23T18:14:27.259Z,29.83
2022-12-23T18:17:06.362Z,27.73
2022-12-23T18:19:33.408Z,24.13
2022-12-23T18:22:00.209Z,29.70
2022-12-23T18:24:28.488Z,25.13
2022-12-23T18:26:55.387Z,26.77
2022-12-23T18:29:22.223Z,46.83
2022-12-23T18:31:51.933Z,28.05
2022-12-23T18:34:20.033Z,30.42
2022-12-23T18:36:48.501Z,30.23
2022-12-23T18:39:15.692Z,30.58
2022-12-23T18:41:43.023Z,25.73
2022-12-23T18:44:21.170Z,21.98
2022-12-23T18:46:49.300Z,19.13
2022-12-23T18:49:16.216Z,23.48
2022-12-23T18:51:43.378Z,28.80
2022-12-23T18:54:15.125Z,22.70
2022-12-23T18:56:42.164Z,21.77
2022-12-23T18:59:21.423Z,31.42
2022-12-23T19:01:54.605Z,82.53
2022-12-23T19:04:21.558Z,74.13
2022-12-23T19:06:51.041Z,71.40
2022-12-23T19:09:23.353Z,63.20
2022-12-23T19:11:52.250Z,73.53
2022-12-23T19:14:19.064Z,79.78
2022-12-23T19:16:51.273Z,103.90
2022-12-23T19:19:19.516Z,92.80
2022-12-23T19:21:46.771Z,88.63
2022-12-23T19:24:14.131Z,65.90
2022-12-23T19:26:40.928Z,72.80
2022-12-23T19:29:08.840Z,86.97
2022-12-23T19:31:35.652Z,77.57
2022-12-23T19:34:02.464Z,79.80
2022-12-23T19:36:29.332Z,65.05
2022-12-23T19:38:57.800Z,57.08
2022-12-23T19:41:25.907Z,61.95
2022-12-23T19:43:52.910Z,63.80
2022-12-23T19:46:19.805Z,48.97
2022-12-23T19:48:52.581Z,46.13
2022-12-23T19:51:19.731Z,51.60
2022-12-23T19:53:51.026Z,49.05
2022-12-23T19:56:22.846Z,43.85
2022-12-23T19:58:50.426Z,46.58
2022-12-23T20:01:24.438Z,45.17
2022-12-23T20:03:53.029Z,46.35
2022-12-23T20:06:27.050Z,51.72
2022-12-23T20:08:59.965Z,46.40
2022-12-23T20:11:30.931Z,61.10
2022-12-23T20:13:58.545Z,54.97
2022-12-23T20:16:26.038Z,55.75
2022-12-23T20:18:54.890Z,43.38
2022-12-23T20:21:21.747Z,51.17
2022-12-23T20:23:49.230Z,55.75
2022-12-23T20:26:18.608Z,52.80
2022-12-23T20:28:45.853Z,56.65
2022-12-23T20:31:19.396Z,49.88
2022-12-23T20:33:47.241Z,47.60
2022-12-23T20:36:16.240Z,59.63
2022-12-23T20:38:45.662Z,71.72
2022-12-23T20:41:19.866Z,84.15
2022-12-23T20:44:02.741Z,93.32
2022-12-23T20:46:34.196Z,64.57
2022-12-23T20:49:03.586Z,61.22
2022-12-23T20:51:30.560Z,48.33
2022-12-23T20:54:01.925Z,52.80
2022-12-23T20:56:30.508Z,58.65
2022-12-23T20:58:59.257Z,49.22
2022-12-23T21:01:31.057Z,52.10
2022-12-23T21:04:00.416Z,58.28
2022-12-23T21:06:29.261Z,61.97
2022-12-23T21:08:58.364Z,78.80
2022-12-23T21:11:28.662Z,93.32
2022-12-23T21:13:57.762Z,95.78
2022-12-23T21:16:26.819Z,79.72
2022-12-23T21:18:53.748Z,80.55
2022-12-23T21:21:23.622Z,82.05
2022-12-23T21:23:50.813Z,82.07
2022-12-23T21:26:19.968Z,75.63
2022-12-23T21:28:48.805Z,85.22
2022-12-23T21:31:20.389Z,89.20
2022-12-23T21:33:48.331Z,94.50
2022-12-23T21:36:20.999Z,89.97
2022-12-23T21:38:48.751Z,85.88
2022-12-23T21:41:18.774Z,74.47
2022-12-23T21:43:48.904Z,74.18
2022-12-23T21:46:17.727Z,75.88
2022-12-23T21:48:45.126Z,64.43
2022-12-23T21:51:21.871Z,67.10
2022-12-23T21:53:50.943Z,58.15
2022-12-23T21:56:19.933Z,62.40
2022-12-23T21:58:47.487Z,64.50
2022-12-23T22:01:19.621Z,47.42
2022-12-23T22:03:48.662Z,48.53
2022-12-23T22:06:18.151Z,54.97
2022-12-23T22:08:45.327Z,59.28
2022-12-23T22:11:24.918Z,46.17
2022-12-23T22:13:51.982Z,36.25
2022-12-23T22:16:21.649Z,43.75
2022-12-23T22:18:50.069Z,50.80
2022-12-23T22:21:19.767Z,69.03
2022-12-23T22:23:47.636Z,68.93
2022-12-23T22:26:24.067Z,75.18
2022-12-23T22:28:52.301Z,85.97
2022-12-23T22:31:31.296Z,88.55
2022-12-23T22:33:58.907Z,89.63
2022-12-23T22:36:26.358Z,93.65
2022-12-23T22:38:55.505Z,91.13
2022-12-23T22:41:23.200Z,91.40
2022-12-23T22:43:50.138Z,89.15
2022-12-23T22:46:18.506Z,82.43
2022-12-23T22:48:46.109Z,87.13
2022-12-23T22:51:24.859Z,85.05
2022-12-23T22:53:51.745Z,82.50
2022-12-23T22:56:20.801Z,80.88
2022-12-23T22:58:47.580Z,88.57
2022-12-23T23:01:35.333Z,78.30
2022-12-23T23:04:03.799Z,77.47
2022-12-23T23:06:38.011Z,83.28
2022-12-23T23:09:12.857Z,86.18
2022-12-23T23:11:40.226Z,82.57
2022-12-23T23:14:07.520Z,78.88
2022-12-23T23:16:34.554Z,82.82
2022-12-23T23:19:03.594Z,78.18
2022-12-23T23:21:30.343Z,89.70
2022-12-23T23:23:57.420Z,89.32
2022-12-23T23:26:27.633Z,87.45
2022-12-23T23:28:55.916Z,80.05
2022-12-23T23:34:10.258Z,84.40
2022-12-23T23:36:37.203Z,70.45
2022-12-23T23:39:04.234Z,73.28
2022-12-23T23:41:31.288Z,65.65
2022-12-23T23:43:58.050Z,65.32
2022-12-23T23:46:24.830Z,54.60
2022-12-23T23:48:51.659Z,50.08
2022-12-23T23:51:18.536Z,45.28
2022-12-23T23:53:45.224Z,37.38
2022-12-23T23:56:11.890Z,33.15
2022-12-23T23:58:38.659Z,28.15
